sensor_id;sensor_type;location;lat;lon;timestamp;P1;durP1;ratioP1;P2;durP2;ratioP2
78844;SDS011;68195;50.854;2.860;2023-04-30T00:00:02;16.50;;;9.65;;
78844;SDS011;68195;50.854;2.860;2023-04-30T00:02:32;16.15;;;10.48;;
78844;SDS011;68195;50.854;2.860;2023-04-30T00:04:58;13.57;;;9.70;;
78844;SDS011;68195;50.854;2.860;2023-04-30T00:07:28;16.10;;;10.43;;
78844;SDS011;68195;50.854;2.860;2023-04-30T00:09:53;16.58;;;10.05;;
78844;SDS011;68195;50.854;2.860;2023-04-30T00:12:19;15.20;;;9.65;;
78844;SDS011;68195;50.854;2.860;2023-04-30T00:14:45;13.50;;;10.10;;
78844;SDS011;68195;50.854;2.860;2023-04-30T00:17:10;16.35;;;10.90;;
78844;SDS011;68195;50.854;2.860;2023-04-30T00:19:36;14.85;;;9.75;;
78844;SDS011;68195;50.854;2.860;2023-04-30T00:22:01;17.48;;;10.13;;
78844;SDS011;68195;50.854;2.860;2023-04-30T00:24:27;21.33;;;11.20;;
78844;SDS011;68195;50.854;2.860;2023-04-30T00:26:55;16.25;;;11.60;;
78844;SDS011;68195;50.854;2.860;2023-04-30T00:29:21;16.05;;;11.25;;
78844;SDS011;68195;50.854;2.860;2023-04-30T00:31:46;15.60;;;11.18;;
78844;SDS011;68195;50.854;2.860;2023-04-30T00:34:14;21.08;;;11.40;;
78844;SDS011;68195;50.854;2.860;2023-04-30T00:36:39;15.18;;;9.93;;
78844;SDS011;68195;50.854;2.860;2023-04-30T00:39:05;14.68;;;10.25;;
78844;SDS011;68195;50.854;2.860;2023-04-30T00:41:31;15.82;;;10.88;;
78844;SDS011;68195;50.854;2.860;2023-04-30T00:43:59;17.60;;;10.50;;
78844;SDS011;68195;50.854;2.860;2023-04-30T00:46:29;15.60;;;11.23;;
78844;SDS011;68195;50.854;2.860;2023-04-30T00:48:54;16.77;;;10.88;;
78844;SDS011;68195;50.854;2.860;2023-04-30T00:51:24;16.52;;;10.80;;
78844;SDS011;68195;50.854;2.860;2023-04-30T00:53:50;13.88;;;10.25;;
78844;SDS011;68195;50.854;2.860;2023-04-30T00:56:19;16.40;;;10.98;;
78844;SDS011;68195;50.854;2.860;2023-04-30T00:58:45;14.52;;;9.63;;
78844;SDS011;68195;50.854;2.860;2023-04-30T01:01:13;14.43;;;10.55;;
78844;SDS011;68195;50.854;2.860;2023-04-30T01:03:39;14.77;;;10.00;;
78844;SDS011;68195;50.854;2.860;2023-04-30T01:06:08;15.55;;;10.40;;
78844;SDS011;68195;50.854;2.860;2023-04-30T01:08:34;17.90;;;11.25;;
78844;SDS011;68195;50.854;2.860;2023-04-30T01:16:22;15.35;;;10.63;;
78844;SDS011;68195;50.854;2.860;2023-04-30T01:18:55;16.38;;;11.05;;
78844;SDS011;68195;50.854;2.860;2023-04-30T01:21:24;17.88;;;10.90;;
78844;SDS011;68195;50.854;2.860;2023-04-30T01:29:29;14.85;;;9.70;;
78844;SDS011;68195;50.854;2.860;2023-04-30T01:31:54;16.27;;;10.60;;
78844;SDS011;68195;50.854;2.860;2023-04-30T01:34:20;14.00;;;10.18;;
78844;SDS011;68195;50.854;2.860;2023-04-30T01:42:20;15.50;;;10.55;;
78844;SDS011;68195;50.854;2.860;2023-04-30T01:52:58;16.08;;;10.13;;
78844;SDS011;68195;50.854;2.860;2023-04-30T01:55:41;14.02;;;9.38;;
78844;SDS011;68195;50.854;2.860;2023-04-30T01:58:14;12.57;;;8.73;;
78844;SDS011;68195;50.854;2.860;2023-04-30T02:00:40;18.15;;;10.18;;
78844;SDS011;68195;50.854;2.860;2023-04-30T02:03:06;17.65;;;11.13;;
78844;SDS011;68195;50.854;2.860;2023-04-30T02:05:32;13.93;;;11.13;;
78844;SDS011;68195;50.854;2.860;2023-04-30T02:07:58;17.48;;;10.75;;
78844;SDS011;68195;50.854;2.860;2023-04-30T02:10:24;13.75;;;10.18;;
78844;SDS011;68195;50.854;2.860;2023-04-30T02:12:53;16.70;;;10.88;;
78844;SDS011;68195;50.854;2.860;2023-04-30T02:15:21;16.40;;;10.88;;
78844;SDS011;68195;50.854;2.860;2023-04-30T02:17:51;17.80;;;11.20;;
78844;SDS011;68195;50.854;2.860;2023-04-30T02:20:19;15.52;;;11.02;;
78844;SDS011;68195;50.854;2.860;2023-04-30T02:22:45;13.75;;;10.20;;
78844;SDS011;68195;50.854;2.860;2023-04-30T02:25:10;20.08;;;11.32;;
78844;SDS011;68195;50.854;2.860;2023-04-30T02:27:39;21.88;;;11.60;;
78844;SDS011;68195;50.854;2.860;2023-04-30T02:30:04;18.52;;;10.73;;
78844;SDS011;68195;50.854;2.860;2023-04-30T02:32:30;16.35;;;10.98;;
78844;SDS011;68195;50.854;2.860;2023-04-30T02:34:56;18.52;;;11.85;;
78844;SDS011;68195;50.854;2.860;2023-04-30T02:37:22;18.20;;;11.40;;
78844;SDS011;68195;50.854;2.860;2023-04-30T02:39:49;18.33;;;11.23;;
78844;SDS011;68195;50.854;2.860;2023-04-30T02:42:18;16.58;;;10.88;;
78844;SDS011;68195;50.854;2.860;2023-04-30T02:44:46;15.93;;;10.95;;
78844;SDS011;68195;50.854;2.860;2023-04-30T02:47:16;18.40;;;11.98;;
78844;SDS011;68195;50.854;2.860;2023-04-30T02:49:41;15.77;;;11.98;;
78844;SDS011;68195;50.854;2.860;2023-04-30T02:52:07;16.17;;;11.15;;
78844;SDS011;68195;50.854;2.860;2023-04-30T02:54:33;18.40;;;11.43;;
78844;SDS011;68195;50.854;2.860;2023-04-30T02:56:59;21.13;;;11.10;;
78844;SDS011;68195;50.854;2.860;2023-04-30T02:59:24;15.85;;;10.57;;
78844;SDS011;68195;50.854;2.860;2023-04-30T03:01:51;18.30;;;12.20;;
78844;SDS011;68195;50.854;2.860;2023-04-30T03:04:18;18.33;;;11.77;;
78844;SDS011;68195;50.854;2.860;2023-04-30T03:06:46;19.02;;;10.57;;
78844;SDS011;68195;50.854;2.860;2023-04-30T03:09:14;16.45;;;11.32;;
78844;SDS011;68195;50.854;2.860;2023-04-30T03:11:40;17.95;;;12.38;;
78844;SDS011;68195;50.854;2.860;2023-04-30T03:14:07;20.00;;;11.23;;
78844;SDS011;68195;50.854;2.860;2023-04-30T03:16:33;17.65;;;10.70;;
78844;SDS011;68195;50.854;2.860;2023-04-30T03:19:01;17.88;;;10.73;;
78844;SDS011;68195;50.854;2.860;2023-04-30T03:21:26;16.52;;;11.20;;
78844;SDS011;68195;50.854;2.860;2023-04-30T03:23:52;18.08;;;10.48;;
78844;SDS011;68195;50.854;2.860;2023-04-30T03:26:17;18.35;;;11.27;;
78844;SDS011;68195;50.854;2.860;2023-04-30T03:28:45;19.02;;;12.02;;
78844;SDS011;68195;50.854;2.860;2023-04-30T03:31:11;15.38;;;11.82;;
78844;SDS011;68195;50.854;2.860;2023-04-30T03:33:36;19.73;;;12.80;;
78844;SDS011;68195;50.854;2.860;2023-04-30T03:36:01;18.65;;;12.50;;
78844;SDS011;68195;50.854;2.860;2023-04-30T03:38:27;18.02;;;10.80;;
78844;SDS011;68195;50.854;2.860;2023-04-30T03:40:52;17.58;;;10.80;;
78844;SDS011;68195;50.854;2.860;2023-04-30T03:43:22;15.77;;;10.48;;
78844;SDS011;68195;50.854;2.860;2023-04-30T03:45:48;15.75;;;9.40;;
78844;SDS011;68195;50.854;2.860;2023-04-30T03:48:18;13.40;;;9.20;;
78844;SDS011;68195;50.854;2.860;2023-04-30T03:50:43;11.15;;;6.93;;
78844;SDS011;68195;50.854;2.860;2023-04-30T03:53:09;10.90;;;7.43;;
78844;SDS011;68195;50.854;2.860;2023-04-30T03:55:37;11.98;;;8.40;;
78844;SDS011;68195;50.854;2.860;2023-04-30T03:58:02;10.55;;;7.97;;
78844;SDS011;68195;50.854;2.860;2023-04-30T04:00:28;11.32;;;8.15;;
78844;SDS011;68195;50.854;2.860;2023-04-30T04:02:57;12.60;;;7.70;;
78844;SDS011;68195;50.854;2.860;2023-04-30T04:05:27;15.80;;;8.88;;
78844;SDS011;68195;50.854;2.860;2023-04-30T04:07:53;11.43;;;7.85;;
78844;SDS011;68195;50.854;2.860;2023-04-30T04:10:21;11.77;;;8.45;;
78844;SDS011;68195;50.854;2.860;2023-04-30T04:12:46;16.23;;;10.68;;
78844;SDS011;68195;50.854;2.860;2023-04-30T04:15:11;17.05;;;10.82;;
78844;SDS011;68195;50.854;2.860;2023-04-30T04:17:39;14.63;;;10.00;;
78844;SDS011;68195;50.854;2.860;2023-04-30T04:20:05;15.10;;;9.85;;
78844;SDS011;68195;50.854;2.860;2023-04-30T04:22:31;12.98;;;8.98;;
78844;SDS011;68195;50.854;2.860;2023-04-30T04:24:56;14.40;;;9.07;;
78844;SDS011;68195;50.854;2.860;2023-04-30T04:27:24;14.35;;;9.80;;
78844;SDS011;68195;50.854;2.860;2023-04-30T04:29:52;12.77;;;9.88;;
78844;SDS011;68195;50.854;2.860;2023-04-30T04:32:21;16.85;;;10.88;;
78844;SDS011;68195;50.854;2.860;2023-04-30T04:34:48;16.00;;;10.63;;
78844;SDS011;68195;50.854;2.860;2023-04-30T04:37:14;14.90;;;10.25;;
78844;SDS011;68195;50.854;2.860;2023-04-30T04:39:41;12.80;;;9.55;;
78844;SDS011;68195;50.854;2.860;2023-04-30T04:42:06;15.18;;;10.02;;
78844;SDS011;68195;50.854;2.860;2023-04-30T04:44:32;15.05;;;9.57;;
78844;SDS011;68195;50.854;2.860;2023-04-30T04:46:57;13.45;;;9.40;;
78844;SDS011;68195;50.854;2.860;2023-04-30T04:49:23;15.50;;;9.77;;
78844;SDS011;68195;50.854;2.860;2023-04-30T04:51:48;14.20;;;9.07;;
78844;SDS011;68195;50.854;2.860;2023-04-30T04:54:16;15.73;;;9.23;;
78844;SDS011;68195;50.854;2.860;2023-04-30T04:56:41;16.00;;;9.77;;
78844;SDS011;68195;50.854;2.860;2023-04-30T04:59:06;17.02;;;11.15;;
78844;SDS011;68195;50.854;2.860;2023-04-30T05:01:32;12.18;;;9.45;;
78844;SDS011;68195;50.854;2.860;2023-04-30T05:03:57;17.05;;;10.15;;
78844;SDS011;68195;50.854;2.860;2023-04-30T05:06:23;14.35;;;9.93;;
78844;SDS011;68195;50.854;2.860;2023-04-30T05:08:50;14.55;;;10.13;;
78844;SDS011;68195;50.854;2.860;2023-04-30T05:11:18;13.35;;;8.90;;
78844;SDS011;68195;50.854;2.860;2023-04-30T05:13:46;16.20;;;10.77;;
78844;SDS011;68195;50.854;2.860;2023-04-30T05:16:11;15.13;;;9.40;;
78844;SDS011;68195;50.854;2.860;2023-04-30T05:18:37;16.75;;;10.73;;
78844;SDS011;68195;50.854;2.860;2023-04-30T05:21:02;17.23;;;12.07;;
78844;SDS011;68195;50.854;2.860;2023-04-30T05:23:28;20.73;;;11.93;;
78844;SDS011;68195;50.854;2.860;2023-04-30T05:25:56;19.42;;;12.88;;
78844;SDS011;68195;50.854;2.860;2023-04-30T05:28:21;17.30;;;11.18;;
78844;SDS011;68195;50.854;2.860;2023-04-30T05:30:46;22.55;;;12.63;;
78844;SDS011;68195;50.854;2.860;2023-04-30T05:33:12;19.30;;;11.93;;
78844;SDS011;68195;50.854;2.860;2023-04-30T05:35:37;20.52;;;13.35;;
78844;SDS011;68195;50.854;2.860;2023-04-30T05:38:03;20.27;;;13.18;;
78844;SDS011;68195;50.854;2.860;2023-04-30T05:40:28;21.30;;;14.15;;
78844;SDS011;68195;50.854;2.860;2023-04-30T05:42:54;23.17;;;14.90;;
78844;SDS011;68195;50.854;2.860;2023-04-30T05:45:22;21.98;;;14.20;;
78844;SDS011;68195;50.854;2.860;2023-04-30T05:47:48;23.35;;;15.02;;
78844;SDS011;68195;50.854;2.860;2023-04-30T05:50:15;23.92;;;14.55;;
78844;SDS011;68195;50.854;2.860;2023-04-30T05:52:41;22.75;;;15.07;;
78844;SDS011;68195;50.854;2.860;2023-04-30T05:55:06;23.05;;;13.90;;
78844;SDS011;68195;50.854;2.860;2023-04-30T05:57:32;24.35;;;15.95;;
78844;SDS011;68195;50.854;2.860;2023-04-30T05:59:59;23.65;;;14.50;;
78844;SDS011;68195;50.854;2.860;2023-04-30T06:02:24;22.90;;;14.82;;
78844;SDS011;68195;50.854;2.860;2023-04-30T06:04:50;23.30;;;14.52;;
78844;SDS011;68195;50.854;2.860;2023-04-30T06:07:18;20.70;;;13.57;;
78844;SDS011;68195;50.854;2.860;2023-04-30T06:09:43;18.27;;;12.98;;
78844;SDS011;68195;50.854;2.860;2023-04-30T06:12:09;23.35;;;13.25;;
78844;SDS011;68195;50.854;2.860;2023-04-30T06:14:37;23.23;;;13.43;;
78844;SDS011;68195;50.854;2.860;2023-04-30T06:17:09;19.02;;;12.38;;
78844;SDS011;68195;50.854;2.860;2023-04-30T06:19:34;19.67;;;10.52;;
78844;SDS011;68195;50.854;2.860;2023-04-30T06:22:00;18.17;;;12.10;;
78844;SDS011;68195;50.854;2.860;2023-04-30T06:24:25;21.00;;;12.23;;
78844;SDS011;68195;50.854;2.860;2023-04-30T06:26:51;15.20;;;10.68;;
78844;SDS011;68195;50.854;2.860;2023-04-30T06:29:17;19.30;;;11.25;;
78844;SDS011;68195;50.854;2.860;2023-04-30T06:31:42;21.13;;;11.65;;
78844;SDS011;68195;50.854;2.860;2023-04-30T06:34:07;20.00;;;11.05;;
78844;SDS011;68195;50.854;2.860;2023-04-30T06:36:33;18.15;;;11.38;;
78844;SDS011;68195;50.854;2.860;2023-04-30T06:38:58;19.45;;;11.43;;
78844;SDS011;68195;50.854;2.860;2023-04-30T06:41:23;18.77;;;11.68;;
78844;SDS011;68195;50.854;2.860;2023-04-30T06:43:49;17.92;;;11.65;;
78844;SDS011;68195;50.854;2.860;2023-04-30T06:46:20;19.23;;;11.20;;
78844;SDS011;68195;50.854;2.860;2023-04-30T06:48:45;17.08;;;11.23;;
78844;SDS011;68195;50.854;2.860;2023-04-30T06:51:10;19.63;;;11.63;;
78844;SDS011;68195;50.854;2.860;2023-04-30T06:53:35;21.25;;;11.30;;
78844;SDS011;68195;50.854;2.860;2023-04-30T06:56:03;16.17;;;10.43;;
78844;SDS011;68195;50.854;2.860;2023-04-30T06:58:34;15.20;;;10.95;;
78844;SDS011;68195;50.854;2.860;2023-04-30T07:00:59;19.00;;;11.83;;
78844;SDS011;68195;50.854;2.860;2023-04-30T07:03:25;19.27;;;11.60;;
78844;SDS011;68195;50.854;2.860;2023-04-30T07:05:53;17.83;;;11.98;;
78844;SDS011;68195;50.854;2.860;2023-04-30T07:08:21;14.35;;;10.07;;
78844;SDS011;68195;50.854;2.860;2023-04-30T07:10:49;16.17;;;11.30;;
78844;SDS011;68195;50.854;2.860;2023-04-30T07:13:17;20.92;;;11.98;;
78844;SDS011;68195;50.854;2.860;2023-04-30T07:15:42;15.10;;;10.65;;
78844;SDS011;68195;50.854;2.860;2023-04-30T07:18:10;16.40;;;10.20;;
78844;SDS011;68195;50.854;2.860;2023-04-30T07:20:39;16.92;;;11.25;;
78844;SDS011;68195;50.854;2.860;2023-04-30T07:23:06;18.75;;;11.40;;
78844;SDS011;68195;50.854;2.860;2023-04-30T07:25:33;20.00;;;12.23;;
78844;SDS011;68195;50.854;2.860;2023-04-30T07:27:58;17.42;;;10.50;;
78844;SDS011;68195;50.854;2.860;2023-04-30T07:30:24;15.50;;;10.63;;
78844;SDS011;68195;50.854;2.860;2023-04-30T07:32:49;15.55;;;10.52;;
78844;SDS011;68195;50.854;2.860;2023-04-30T07:35:15;17.60;;;11.25;;
78844;SDS011;68195;50.854;2.860;2023-04-30T07:37:40;15.25;;;9.55;;
78844;SDS011;68195;50.854;2.860;2023-04-30T07:40:08;13.45;;;9.95;;
78844;SDS011;68195;50.854;2.860;2023-04-30T07:42:39;16.67;;;10.38;;
78844;SDS011;68195;50.854;2.860;2023-04-30T07:45:09;19.17;;;11.68;;
78844;SDS011;68195;50.854;2.860;2023-04-30T07:47:34;15.73;;;10.02;;
78844;SDS011;68195;50.854;2.860;2023-04-30T07:50:00;14.55;;;9.73;;
78844;SDS011;68195;50.854;2.860;2023-04-30T07:54:53;17.27;;;9.83;;
78844;SDS011;68195;50.854;2.860;2023-04-30T07:57:18;14.90;;;9.90;;
78844;SDS011;68195;50.854;2.860;2023-04-30T07:59:43;15.65;;;10.57;;
78844;SDS011;68195;50.854;2.860;2023-04-30T08:02:09;15.80;;;10.23;;
78844;SDS011;68195;50.854;2.860;2023-04-30T08:04:34;14.40;;;9.75;;
78844;SDS011;68195;50.854;2.860;2023-04-30T08:07:02;15.18;;;9.82;;
78844;SDS011;68195;50.854;2.860;2023-04-30T08:09:31;17.73;;;11.30;;
78844;SDS011;68195;50.854;2.860;2023-04-30T08:11:58;15.68;;;10.00;;
78844;SDS011;68195;50.854;2.860;2023-04-30T08:14:24;17.60;;;11.15;;
78844;SDS011;68195;50.854;2.860;2023-04-30T08:19:14;17.70;;;11.37;;
78844;SDS011;68195;50.854;2.860;2023-04-30T08:24:05;17.48;;;11.05;;
78844;SDS011;68195;50.854;2.860;2023-04-30T08:29:04;14.27;;;9.38;;
78844;SDS011;68195;50.854;2.860;2023-04-30T08:31:29;16.45;;;11.80;;
78844;SDS011;68195;50.854;2.860;2023-04-30T08:36:25;18.92;;;12.55;;
78844;SDS011;68195;50.854;2.860;2023-04-30T08:38:51;18.13;;;11.15;;
78844;SDS011;68195;50.854;2.860;2023-04-30T08:43:49;15.68;;;10.30;;
78844;SDS011;68195;50.854;2.860;2023-04-30T08:46:23;14.27;;;10.55;;
78844;SDS011;68195;50.854;2.860;2023-04-30T08:48:55;15.65;;;11.30;;
78844;SDS011;68195;50.854;2.860;2023-04-30T08:51:21;15.10;;;11.27;;
78844;SDS011;68195;50.854;2.860;2023-04-30T08:53:51;16.38;;;10.32;;
78844;SDS011;68195;50.854;2.860;2023-04-30T08:56:19;19.92;;;12.15;;
78844;SDS011;68195;50.854;2.860;2023-04-30T09:01:12;16.80;;;9.60;;
78844;SDS011;68195;50.854;2.860;2023-04-30T09:06:06;14.55;;;10.80;;
78844;SDS011;68195;50.854;2.860;2023-04-30T09:11:25;13.75;;;9.85;;
78844;SDS011;68195;50.854;2.860;2023-04-30T09:13:53;12.93;;;8.85;;
78844;SDS011;68195;50.854;2.860;2023-04-30T09:16:20;13.20;;;8.35;;
78844;SDS011;68195;50.854;2.860;2023-04-30T09:18:50;13.38;;;8.35;;
78844;SDS011;68195;50.854;2.860;2023-04-30T09:21:16;10.80;;;7.43;;
78844;SDS011;68195;50.854;2.860;2023-04-30T09:23:56;9.85;;;7.05;;
78844;SDS011;68195;50.854;2.860;2023-04-30T09:26:31;9.40;;;6.88;;
78844;SDS011;68195;50.854;2.860;2023-04-30T09:29:02;11.85;;;7.00;;
78844;SDS011;68195;50.854;2.860;2023-04-30T09:31:35;12.30;;;8.63;;
78844;SDS011;68195;50.854;2.860;2023-04-30T09:34:02;9.90;;;6.80;;
78844;SDS011;68195;50.854;2.860;2023-04-30T09:36:28;11.63;;;7.25;;
78844;SDS011;68195;50.854;2.860;2023-04-30T09:38:54;9.43;;;7.13;;
78844;SDS011;68195;50.854;2.860;2023-04-30T09:41:20;12.32;;;8.00;;
78844;SDS011;68195;50.854;2.860;2023-04-30T09:43:47;9.52;;;6.22;;
78844;SDS011;68195;50.854;2.860;2023-04-30T09:48:40;8.95;;;5.90;;
78844;SDS011;68195;50.854;2.860;2023-04-30T09:51:10;10.38;;;6.57;;
78844;SDS011;68195;50.854;2.860;2023-04-30T09:53:39;8.65;;;6.50;;
78844;SDS011;68195;50.854;2.860;2023-04-30T09:56:06;9.38;;;5.90;;
78844;SDS011;68195;50.854;2.860;2023-04-30T09:58:36;8.70;;;5.93;;
78844;SDS011;68195;50.854;2.860;2023-04-30T10:01:05;8.23;;;5.90;;
78844;SDS011;68195;50.854;2.860;2023-04-30T10:03:37;6.72;;;4.85;;
78844;SDS011;68195;50.854;2.860;2023-04-30T10:06:06;9.05;;;5.40;;
78844;SDS011;68195;50.854;2.860;2023-04-30T10:08:38;8.20;;;5.40;;
78844;SDS011;68195;50.854;2.860;2023-04-30T10:11:09;8.10;;;5.88;;
78844;SDS011;68195;50.854;2.860;2023-04-30T10:13:50;6.93;;;5.13;;
78844;SDS011;68195;50.854;2.860;2023-04-30T10:19:11;8.45;;;5.35;;
78844;SDS011;68195;50.854;2.860;2023-04-30T10:21:39;8.60;;;5.88;;
78844;SDS011;68195;50.854;2.860;2023-04-30T10:24:12;9.35;;;5.45;;
78844;SDS011;68195;50.854;2.860;2023-04-30T10:26:39;9.90;;;6.65;;
78844;SDS011;68195;50.854;2.860;2023-04-30T10:29:08;6.88;;;4.82;;
78844;SDS011;68195;50.854;2.860;2023-04-30T10:31:36;7.28;;;5.05;;
78844;SDS011;68195;50.854;2.860;2023-04-30T10:36:56;9.27;;;5.68;;
78844;SDS011;68195;50.854;2.860;2023-04-30T10:39:26;9.85;;;6.53;;
78844;SDS011;68195;50.854;2.860;2023-04-30T10:42:00;10.63;;;6.43;;
78844;SDS011;68195;50.854;2.860;2023-04-30T10:44:27;8.73;;;5.60;;
78844;SDS011;68195;50.854;2.860;2023-04-30T10:47:04;8.48;;;5.60;;
78844;SDS011;68195;50.854;2.860;2023-04-30T10:49:30;9.45;;;6.18;;
78844;SDS011;68195;50.854;2.860;2023-04-30T10:52:00;10.48;;;6.05;;
78844;SDS011;68195;50.854;2.860;2023-04-30T10:54:35;9.23;;;5.60;;
78844;SDS011;68195;50.854;2.860;2023-04-30T10:57:08;8.13;;;5.88;;
78844;SDS011;68195;50.854;2.860;2023-04-30T10:59:40;9.10;;;6.15;;
78844;SDS011;68195;50.854;2.860;2023-04-30T11:02:10;7.80;;;5.32;;
78844;SDS011;68195;50.854;2.860;2023-04-30T11:07:36;7.95;;;6.00;;
78844;SDS011;68195;50.854;2.860;2023-04-30T11:10:06;9.50;;;6.28;;
78844;SDS011;68195;50.854;2.860;2023-04-30T11:12:32;9.95;;;6.57;;
78844;SDS011;68195;50.854;2.860;2023-04-30T11:15:03;11.50;;;6.30;;
78844;SDS011;68195;50.854;2.860;2023-04-30T11:17:31;10.20;;;6.53;;
78844;SDS011;68195;50.854;2.860;2023-04-30T11:19:58;9.77;;;6.85;;
78844;SDS011;68195;50.854;2.860;2023-04-30T11:22:25;8.70;;;6.25;;
78844;SDS011;68195;50.854;2.860;2023-04-30T11:27:23;10.15;;;6.78;;
78844;SDS011;68195;50.854;2.860;2023-04-30T11:29:49;11.35;;;7.47;;
78844;SDS011;68195;50.854;2.860;2023-04-30T11:32:17;10.65;;;7.40;;
78844;SDS011;68195;50.854;2.860;2023-04-30T11:34:43;9.90;;;7.13;;
78844;SDS011;68195;50.854;2.860;2023-04-30T11:37:11;12.60;;;7.70;;
78844;SDS011;68195;50.854;2.860;2023-04-30T11:39:38;10.63;;;6.90;;
78844;SDS011;68195;50.854;2.860;2023-04-30T11:42:06;11.10;;;7.55;;
78844;SDS011;68195;50.854;2.860;2023-04-30T11:44:32;10.70;;;7.35;;
78844;SDS011;68195;50.854;2.860;2023-04-30T11:46:58;9.23;;;6.97;;
78844;SDS011;68195;50.854;2.860;2023-04-30T11:49:25;10.15;;;7.93;;
78844;SDS011;68195;50.854;2.860;2023-04-30T11:51:53;12.15;;;7.28;;
78844;SDS011;68195;50.854;2.860;2023-04-30T11:54:20;11.48;;;7.38;;
78844;SDS011;68195;50.854;2.860;2023-04-30T11:56:46;9.20;;;6.95;;
78844;SDS011;68195;50.854;2.860;2023-04-30T11:59:12;9.43;;;6.50;;
78844;SDS011;68195;50.854;2.860;2023-04-30T12:01:39;12.82;;;8.52;;
78844;SDS011;68195;50.854;2.860;2023-04-30T12:04:04;9.85;;;6.72;;
78844;SDS011;68195;50.854;2.860;2023-04-30T12:06:33;13.15;;;7.45;;
78844;SDS011;68195;50.854;2.860;2023-04-30T12:08:59;11.65;;;7.88;;
78844;SDS011;68195;50.854;2.860;2023-04-30T12:11:29;8.52;;;6.13;;
78844;SDS011;68195;50.854;2.860;2023-04-30T12:14:08;9.75;;;6.68;;
78844;SDS011;68195;50.854;2.860;2023-04-30T12:19:03;11.88;;;6.95;;
78844;SDS011;68195;50.854;2.860;2023-04-30T12:21:28;11.35;;;7.60;;
78844;SDS011;68195;50.854;2.860;2023-04-30T12:23:54;9.45;;;6.97;;
78844;SDS011;68195;50.854;2.860;2023-04-30T12:26:19;9.30;;;6.95;;
78844;SDS011;68195;50.854;2.860;2023-04-30T12:28:48;11.82;;;7.97;;
78844;SDS011;68195;50.854;2.860;2023-04-30T12:31:16;10.55;;;7.28;;
78844;SDS011;68195;50.854;2.860;2023-04-30T12:33:42;9.93;;;8.25;;
78844;SDS011;68195;50.854;2.860;2023-04-30T12:36:11;10.43;;;7.57;;
78844;SDS011;68195;50.854;2.860;2023-04-30T12:38:41;11.13;;;7.47;;
78844;SDS011;68195;50.854;2.860;2023-04-30T12:41:10;10.70;;;7.85;;
78844;SDS011;68195;50.854;2.860;2023-04-30T12:43:39;10.15;;;8.10;;
78844;SDS011;68195;50.854;2.860;2023-04-30T12:46:04;9.40;;;7.72;;
78844;SDS011;68195;50.854;2.860;2023-04-30T12:48:41;9.85;;;7.40;;
78844;SDS011;68195;50.854;2.860;2023-04-30T12:51:09;11.52;;;7.13;;
78844;SDS011;68195;50.854;2.860;2023-04-30T12:53:44;10.90;;;8.77;;
78844;SDS011;68195;50.854;2.860;2023-04-30T12:56:14;8.55;;;7.10;;
78844;SDS011;68195;50.854;2.860;2023-04-30T12:58:42;10.82;;;7.25;;
78844;SDS011;68195;50.854;2.860;2023-04-30T13:01:16;10.93;;;7.28;;
78844;SDS011;68195;50.854;2.860;2023-04-30T13:03:43;9.63;;;6.85;;
78844;SDS011;68195;50.854;2.860;2023-04-30T13:06:08;9.02;;;6.82;;
78844;SDS011;68195;50.854;2.860;2023-04-30T13:08:34;7.57;;;5.70;;
78844;SDS011;68195;50.854;2.860;2023-04-30T13:11:00;10.75;;;7.20;;
78844;SDS011;68195;50.854;2.860;2023-04-30T13:13:25;9.13;;;6.15;;
78844;SDS011;68195;50.854;2.860;2023-04-30T13:15:50;9.18;;;7.93;;
78844;SDS011;68195;50.854;2.860;2023-04-30T13:18:16;10.63;;;7.07;;
78844;SDS011;68195;50.854;2.860;2023-04-30T13:20:42;7.68;;;5.53;;
78844;SDS011;68195;50.854;2.860;2023-04-30T13:23:08;9.13;;;6.72;;
78844;SDS011;68195;50.854;2.860;2023-04-30T13:25:34;9.55;;;6.10;;
78844;SDS011;68195;50.854;2.860;2023-04-30T13:28:00;8.38;;;6.68;;
78844;SDS011;68195;50.854;2.860;2023-04-30T13:30:26;10.15;;;6.63;;
78844;SDS011;68195;50.854;2.860;2023-04-30T13:32:52;10.90;;;6.32;;
78844;SDS011;68195;50.854;2.860;2023-04-30T13:35:18;10.27;;;6.03;;
78844;SDS011;68195;50.854;2.860;2023-04-30T13:37:46;9.70;;;5.43;;
78844;SDS011;68195;50.854;2.860;2023-04-30T13:40:18;7.13;;;5.35;;
78844;SDS011;68195;50.854;2.860;2023-04-30T13:42:44;7.85;;;6.03;;
78844;SDS011;68195;50.854;2.860;2023-04-30T13:45:13;6.10;;;4.80;;
78844;SDS011;68195;50.854;2.860;2023-04-30T13:47:39;8.13;;;5.63;;
78844;SDS011;68195;50.854;2.860;2023-04-30T13:50:05;7.05;;;5.97;;
78844;SDS011;68195;50.854;2.860;2023-04-30T13:52:31;8.20;;;5.82;;
78844;SDS011;68195;50.854;2.860;2023-04-30T13:54:57;8.95;;;6.18;;
78844;SDS011;68195;50.854;2.860;2023-04-30T13:57:22;8.15;;;6.25;;
78844;SDS011;68195;50.854;2.860;2023-04-30T13:59:49;9.48;;;6.25;;
78844;SDS011;68195;50.854;2.860;2023-04-30T14:02:15;10.25;;;6.85;;
78844;SDS011;68195;50.854;2.860;2023-04-30T14:04:40;9.52;;;5.80;;
78844;SDS011;68195;50.854;2.860;2023-04-30T14:09:38;9.75;;;6.40;;
78844;SDS011;68195;50.854;2.860;2023-04-30T14:12:03;9.25;;;5.78;;
78844;SDS011;68195;50.854;2.860;2023-04-30T14:14:29;8.48;;;5.60;;
78844;SDS011;68195;50.854;2.860;2023-04-30T14:16:54;8.10;;;5.93;;
78844;SDS011;68195;50.854;2.860;2023-04-30T14:19:23;7.57;;;5.75;;
78844;SDS011;68195;50.854;2.860;2023-04-30T14:21:50;8.43;;;6.10;;
78844;SDS011;68195;50.854;2.860;2023-04-30T14:24:19;11.15;;;6.68;;
78844;SDS011;68195;50.854;2.860;2023-04-30T14:26:44;9.88;;;6.45;;
78844;SDS011;68195;50.854;2.860;2023-04-30T14:29:10;7.75;;;5.47;;
78844;SDS011;68195;50.854;2.860;2023-04-30T14:31:40;9.70;;;6.38;;
78844;SDS011;68195;50.854;2.860;2023-04-30T14:34:08;11.40;;;6.68;;
78844;SDS011;68195;50.854;2.860;2023-04-30T14:36:33;10.48;;;7.22;;
78844;SDS011;68195;50.854;2.860;2023-04-30T14:39:02;8.98;;;5.60;;
78844;SDS011;68195;50.854;2.860;2023-04-30T14:41:34;7.55;;;5.82;;
78844;SDS011;68195;50.854;2.860;2023-04-30T14:44:03;7.68;;;5.43;;
78844;SDS011;68195;50.854;2.860;2023-04-30T14:46:31;9.52;;;5.68;;
78844;SDS011;68195;50.854;2.860;2023-04-30T14:48:57;7.53;;;5.68;;
78844;SDS011;68195;50.854;2.860;2023-04-30T14:51:22;6.78;;;5.28;;
78844;SDS011;68195;50.854;2.860;2023-04-30T14:53:50;7.93;;;5.60;;
78844;SDS011;68195;50.854;2.860;2023-04-30T14:56:18;8.25;;;5.78;;
78844;SDS011;68195;50.854;2.860;2023-04-30T14:58:47;6.35;;;5.38;;
78844;SDS011;68195;50.854;2.860;2023-04-30T15:01:13;7.60;;;5.80;;
78844;SDS011;68195;50.854;2.860;2023-04-30T15:03:38;9.00;;;5.43;;
78844;SDS011;68195;50.854;2.860;2023-04-30T15:06:04;7.65;;;5.38;;
78844;SDS011;68195;50.854;2.860;2023-04-30T15:08:29;8.65;;;4.88;;
78844;SDS011;68195;50.854;2.860;2023-04-30T15:10:54;7.22;;;4.55;;
78844;SDS011;68195;50.854;2.860;2023-04-30T15:13:20;7.20;;;4.57;;
78844;SDS011;68195;50.854;2.860;2023-04-30T15:15:50;5.85;;;4.80;;
78844;SDS011;68195;50.854;2.860;2023-04-30T15:18:16;7.90;;;5.53;;
78844;SDS011;68195;50.854;2.860;2023-04-30T15:20:41;7.60;;;4.57;;
78844;SDS011;68195;50.854;2.860;2023-04-30T15:23:06;6.18;;;4.60;;
78844;SDS011;68195;50.854;2.860;2023-04-30T15:25:32;5.90;;;4.32;;
78844;SDS011;68195;50.854;2.860;2023-04-30T15:27:58;8.38;;;4.55;;
78844;SDS011;68195;50.854;2.860;2023-04-30T15:30:26;7.15;;;4.13;;
78844;SDS011;68195;50.854;2.860;2023-04-30T15:32:54;6.55;;;4.57;;
78844;SDS011;68195;50.854;2.860;2023-04-30T15:35:22;7.47;;;5.40;;
78844;SDS011;68195;50.854;2.860;2023-04-30T15:37:48;6.60;;;4.63;;